sensor_id;sensor_type;location;lat;lon;timestamp;pressure;altitude;pressure_sealevel;temperature;humidity
10806;BME280;5455;53.224;6.000;2023-02-17T00:01:18;101681.53;;;8.84;100.00
10806;BME280;5455;53.224;6.000;2023-02-17T00:03:50;101675.22;;;8.84;100.00
10806;BME280;5455;53.224;6.000;2023-02-17T00:06:20;101670.06;;;8.82;100.00
10806;BME280;5455;53.224;6.000;2023-02-17T00:08:47;101668.16;;;8.83;100.00
10806;BME280;5455;53.224;6.000;2023-02-17T00:11:15;101669.72;;;8.84;100.00
10806;BME280;5455;53.224;6.000;2023-02-17T00:13:43;101665.41;;;8.83;100.00
10806;BME280;5455;53.224;6.000;2023-02-17T00:16:18;101652.44;;;8.83;100.00
10806;BME280;5455;53.224;6.000;2023-02-17T00:18:47;101641.41;;;8.83;100.00
10806;BME280;5455;53.224;6.000;2023-02-17T00:21:20;101629.00;;;8.86;100.00
10806;BME280;5455;53.224;6.000;2023-02-17T00:23:48;101621.06;;;8.84;100.00
10806;BME280;5455;53.224;6.000;2023-02-17T00:26:16;101634.97;;;8.79;100.00
10806;BME280;5455;53.224;6.000;2023-02-17T00:28:44;101634.81;;;8.84;100.00
10806;BME280;5455;53.224;6.000;2023-02-17T00:31:17;101642.59;;;8.82;100.00
10806;BME280;5455;53.224;6.000;2023-02-17T00:33:45;101632.72;;;8.81;100.00
10806;BME280;5455;53.224;6.000;2023-02-17T00:36:17;101634.34;;;8.82;100.00
10806;BME280;5455;53.224;6.000;2023-02-17T00:38:45;101635.94;;;8.83;100.00
10806;BME280;5455;53.224;6.000;2023-02-17T00:41:14;101641.41;;;8.83;100.00
10806;BME280;5455;53.224;6.000;2023-02-17T00:43:41;101637.56;;;8.84;100.00
10806;BME280;5455;53.224;6.000;2023-02-17T00:46:08;101646.28;;;8.86;100.00
10806;BME280;5455;53.224;6.000;2023-02-17T00:48:35;101648.72;;;8.88;100.00
10806;BME280;5455;53.224;6.000;2023-02-17T00:51:03;101636.44;;;8.85;100.00
10806;BME280;5455;53.224;6.000;2023-02-17T00:53:33;101634.81;;;8.84;100.00
10806;BME280;5455;53.224;6.000;2023-02-17T00:56:01;101623.34;;;8.82;100.00
10806;BME280;5455;53.224;6.000;2023-02-17T00:58:27;101626.06;;;8.82;100.00
10806;BME280;5455;53.224;6.000;2023-02-17T01:00:55;101621.41;;;8.83;100.00
10806;BME280;5455;53.224;6.000;2023-02-17T01:03:24;101628.84;;;8.82;100.00
10806;BME280;5455;53.224;6.000;2023-02-17T01:05:52;101630.78;;;8.82;100.00
10806;BME280;5455;53.224;6.000;2023-02-17T01:08:21;101626.41;;;8.81;100.00
10806;BME280;5455;53.224;6.000;2023-02-17T01:10:49;101601.84;;;8.76;100.00
10806;BME280;5455;53.224;6.000;2023-02-17T01:13:17;101609.75;;;8.77;100.00
10806;BME280;5455;53.224;6.000;2023-02-17T01:15:50;101598.28;;;8.75;100.00
10806;BME280;5455;53.224;6.000;2023-02-17T01:18:19;101607.66;;;8.74;100.00
10806;BME280;5455;53.224;6.000;2023-02-17T01:20:49;101613.16;;;8.74;100.00
10806;BME280;5455;53.224;6.000;2023-02-17T01:23:17;101611.41;;;8.70;100.00
10806;BME280;5455;53.224;6.000;2023-02-17T01:25:45;101611.69;;;8.68;100.00
10806;BME280;5455;53.224;6.000;2023-02-17T01:28:17;101615.75;;;8.71;100.00
10806;BME280;5455;53.224;6.000;2023-02-17T01:30:45;101623.66;;;8.72;100.00
10806;BME280;5455;53.224;6.000;2023-02-17T01:33:12;101622.03;;;8.71;100.00
10806;BME280;5455;53.224;6.000;2023-02-17T01:35:39;101617.06;;;8.73;100.00
10806;BME280;5455;53.224;6.000;2023-02-17T01:38:06;101604.13;;;8.74;100.00
10806;BME280;5455;53.224;6.000;2023-02-17T01:40:33;101604.44;;;8.72;100.00
10806;BME280;5455;53.224;6.000;2023-02-17T01:43:01;101599.75;;;8.73;100.00
10806;BME280;5455;53.224;6.000;2023-02-17T01:45:37;101598.13;;;8.72;100.00
10806;BME280;5455;53.224;6.000;2023-02-17T01:48:18;101590.69;;;8.72;100.00
10806;BME280;5455;53.224;6.000;2023-02-17T01:51:16;101600.41;;;8.70;100.00
10806;BME280;5455;53.224;6.000;2023-02-17T01:53:46;101605.25;;;8.73;100.00
10806;BME280;5455;53.224;6.000;2023-02-17T01:56:16;101599.28;;;8.71;100.00
10806;BME280;5455;53.224;6.000;2023-02-17T01:58:47;101592.63;;;8.72;100.00
10806;BME280;5455;53.224;6.000;2023-02-17T02:01:16;101575.66;;;8.70;100.00
10806;BME280;5455;53.224;6.000;2023-02-17T02:03:43;101579.69;;;8.72;100.00
10806;BME280;5455;53.224;6.000;2023-02-17T02:06:15;101580.16;;;8.74;100.00
10806;BME280;5455;53.224;6.000;2023-02-17T02:09:43;101568.69;;;8.72;100.00
10806;BME280;5455;53.224;6.000;2023-02-17T02:11:43;101570.78;;;8.75;100.00
10806;BME280;5455;53.224;6.000;2023-02-17T02:14:10;101565.28;;;8.75;100.00
10806;BME280;5455;53.224;6.000;2023-02-17T02:28:27;101557.66;;;8.81;100.00
10806;BME280;5455;53.224;6.000;2023-02-17T02:33:52;101538.41;;;8.81;100.00
10806;BME280;5455;53.224;6.000;2023-02-17T02:36:34;101547.81;;;8.80;100.00
10806;BME280;5455;53.224;6.000;2023-02-17T02:39:08;101536.00;;;8.79;100.00
10806;BME280;5455;53.224;6.000;2023-02-17T02:41:40;101534.06;;;8.80;100.00
10806;BME280;5455;53.224;6.000;2023-02-17T02:44:13;101531.63;;;8.78;100.00
10806;BME280;5455;53.224;6.000;2023-02-17T02:46:41;101524.50;;;8.77;100.00
10806;BME280;5455;53.224;6.000;2023-02-17T02:49:09;101522.56;;;8.78;100.00
10806;BME280;5455;53.224;6.000;2023-02-17T02:52:01;101529.22;;;8.77;100.00
10806;BME280;5455;53.224;6.000;2023-02-17T03:00:23;101484.25;;;8.73;100.00
10806;BME280;5455;53.224;6.000;2023-02-17T03:02:58;101491.38;;;8.74;100.00
10806;BME280;5455;53.224;6.000;2023-02-17T03:05:37;101470.16;;;8.74;100.00
10806;BME280;5455;53.224;6.000;2023-02-17T03:08:11;101476.84;;;8.73;100.00
10806;BME280;5455;53.224;6.000;2023-02-17T03:10:46;101468.59;;;8.73;100.00
10806;BME280;5455;53.224;6.000;2023-02-17T03:13:15;101462.28;;;8.73;100.00
10806;BME280;5455;53.224;6.000;2023-02-17T03:15:43;101463.09;;;8.73;100.00
10806;BME280;5455;53.224;6.000;2023-02-17T03:18:11;101444.97;;;8.72;100.00
10806;BME280;5455;53.224;6.000;2023-02-17T03:20:45;101441.91;;;8.74;100.00
10806;BME280;5455;53.224;6.000;2023-02-17T03:23:15;101447.41;;;8.74;100.00
10806;BME280;5455;53.224;6.000;2023-02-17T03:25:42;101442.69;;;8.74;100.00
10806;BME280;5455;53.224;6.000;2023-02-17T03:28:11;101436.41;;;8.74;100.00
10806;BME280;5455;53.224;6.000;2023-02-17T03:30:40;101430.91;;;8.74;100.00
10806;BME280;5455;53.224;6.000;2023-02-17T03:33:07;101436.41;;;8.74;100.00
10806;BME280;5455;53.224;6.000;2023-02-17T03:35:34;101443.84;;;8.73;100.00
10806;BME280;5455;53.224;6.000;2023-02-17T03:38:02;101436.41;;;8.74;100.00
10806;BME280;5455;53.224;6.000;2023-02-17T03:40:29;101439.94;;;8.74;100.00
10806;BME280;5455;53.224;6.000;2023-02-17T03:42:56;101447.41;;;8.74;100.00
10806;BME280;5455;53.224;6.000;2023-02-17T03:45:23;101439.47;;;8.72;100.00
10806;BME280;5455;53.224;6.000;2023-02-17T03:47:50;101448.19;;;8.74;100.00
10806;BME280;5455;53.224;6.000;2023-02-17T03:50:17;101440.47;;;8.68;100.00
10806;BME280;5455;53.224;6.000;2023-02-17T03:52:44;101452.09;;;8.73;100.00
10806;BME280;5455;53.224;6.000;2023-02-17T03:55:12;101451.28;;;8.73;100.00
10806;BME280;5455;53.224;6.000;2023-02-17T03:57:39;101435.09;;;8.71;100.00
10806;BME280;5455;53.224;6.000;2023-02-17T04:00:07;101430.75;;;8.70;100.00
10806;BME280;5455;53.224;6.000;2023-02-17T04:02:39;101427.84;;;8.67;100.00
10806;BME280;5455;53.224;6.000;2023-02-17T04:05:09;101428.53;;;8.64;100.00
10806;BME280;5455;53.224;6.000;2023-02-17T04:07:36;101421.75;;;8.61;100.00
10806;BME280;5455;53.224;6.000;2023-02-17T04:10:04;101425.97;;;8.59;100.00
10806;BME280;5455;53.224;6.000;2023-02-17T04:12:34;101427.09;;;8.58;100.00
10806;BME280;5455;53.224;6.000;2023-02-17T04:15:01;101415.28;;;8.57;100.00
10806;BME280;5455;53.224;6.000;2023-02-17T04:17:28;101416.41;;;8.56;100.00
10806;BME280;5455;53.224;6.000;2023-02-17T04:19:55;101410.47;;;8.54;100.00
10806;BME280;5455;53.224;6.000;2023-02-17T04:22:22;101406.09;;;8.53;100.00
10806;BME280;5455;53.224;6.000;2023-02-17T04:24:49;101397.84;;;8.53;100.00
10806;BME280;5455;53.224;6.000;2023-02-17T04:27:16;101402.22;;;8.54;100.00
10806;BME280;5455;53.224;6.000;2023-02-17T04:29:43;101399.31;;;8.51;100.00
10806;BME280;5455;53.224;6.000;2023-02-17T04:32:10;101393.66;;;8.56;100.00
10806;BME280;5455;53.224;6.000;2023-02-17T04:34:36;101395.59;;;8.55;100.00
10806;BME280;5455;53.224;6.000;2023-02-17T04:37:05;101403.50;;;8.57;100.00
10806;BME280;5455;53.224;6.000;2023-02-17T04:39:32;101394.44;;;8.56;100.00
10806;BME280;5455;53.224;6.000;2023-02-17T04:41:59;101395.25;;;8.57;100.00
10806;BME280;5455;53.224;6.000;2023-02-17T04:44:26;101394.13;;;8.58;100.00
10806;BME280;5455;53.224;6.000;2023-02-17T04:46:53;101384.75;;;8.59;100.00
10806;BME280;5455;53.224;6.000;2023-02-17T04:49:20;101401.25;;;8.59;100.00
10806;BME280;5455;53.224;6.000;2023-02-17T04:51:47;101414.63;;;8.60;100.00
10806;BME280;5455;53.224;6.000;2023-02-17T04:54:14;101446.16;;;8.63;100.00
10806;BME280;5455;53.224;6.000;2023-02-17T04:56:41;101439.38;;;8.60;100.00
10806;BME280;5455;53.224;6.000;2023-02-17T04:59:08;101439.53;;;8.64;100.00
10806;BME280;5455;53.224;6.000;2023-02-17T05:01:35;101433.69;;;8.65;100.00
10806;BME280;5455;53.224;6.000;2023-02-17T05:04:02;101424.31;;;8.66;100.00
10806;BME280;5455;53.224;6.000;2023-02-17T05:06:29;101427.06;;;8.66;100.00
10806;BME280;5455;53.224;6.000;2023-02-17T05:08:56;101413.31;;;8.66;100.00
10806;BME280;5455;53.224;6.000;2023-02-17T05:11:23;101390.19;;;8.67;100.00
10806;BME280;5455;53.224;6.000;2023-02-17T05:13:50;101384.69;;;8.67;100.00
10806;BME280;5455;53.224;6.000;2023-02-17T05:16:17;101367.03;;;8.68;100.00
10806;BME280;5455;53.224;6.000;2023-02-17T05:18:44;101363.00;;;8.66;100.00
10806;BME280;5455;53.224;6.000;2023-02-17T05:21:11;101356.38;;;8.67;100.00
10806;BME280;5455;53.224;6.000;2023-02-17T05:23:38;101351.69;;;8.67;100.00
10806;BME280;5455;53.224;6.000;2023-02-17T05:26:07;101354.91;;;8.69;100.00
10806;BME280;5455;53.224;6.000;2023-02-17T05:28:35;101356.03;;;8.68;100.00
10806;BME280;5455;53.224;6.000;2023-02-17T05:31:03;101352.97;;;8.70;100.00
10806;BME280;5455;53.224;6.000;2023-02-17T05:33:31;101364.13;;;8.73;100.00
10806;BME280;5455;53.224;6.000;2023-02-17T05:36:03;101360.22;;;8.74;100.00
10806;BME280;5455;53.224;6.000;2023-02-17T05:38:31;101365.03;;;8.77;100.00
10806;BME280;5455;53.224;6.000;2023-02-17T05:40:58;101357.28;;;8.79;100.00
10806;BME280;5455;53.224;6.000;2023-02-17T05:43:25;101364.38;;;8.80;100.00
10806;BME280;5455;53.224;6.000;2023-02-17T05:45:52;101365.53;;;8.79;100.00
10806;BME280;5455;53.224;6.000;2023-02-17T05:48:19;101362.44;;;8.81;100.00
10806;BME280;5455;53.224;6.000;2023-02-17T05:50:46;101356.94;;;8.81;100.00
10806;BME280;5455;53.224;6.000;2023-02-17T05:53:13;101351.09;;;8.82;100.00
10806;BME280;5455;53.224;6.000;2023-02-17T05:55:40;101355.00;;;8.81;100.00
10806;BME280;5455;53.224;6.000;2023-02-17T05:58:08;101342.88;;;8.82;100.00
10806;BME280;5455;53.224;6.000;2023-02-17T06:00:34;101341.69;;;8.83;100.00
10806;BME280;5455;53.224;6.000;2023-02-17T06:03:01;101340.56;;;8.84;100.00
10806;BME280;5455;53.224;6.000;2023-02-17T06:05:29;101331.19;;;8.85;100.00
10806;BME280;5455;53.224;6.000;2023-02-17T06:07:56;101338.28;;;8.86;100.00
10806;BME280;5455;53.224;6.000;2023-02-17T06:10:23;101339.44;;;8.85;100.00
10806;BME280;5455;53.224;6.000;2023-02-17T06:12:51;101338.28;;;8.86;100.00
10806;BME280;5455;53.224;6.000;2023-02-17T06:15:18;101345.06;;;8.89;100.00
10806;BME280;5455;53.224;6.000;2023-02-17T06:17:45;101336.47;;;8.91;100.00
10806;BME280;5455;53.224;6.000;2023-02-17T06:20:12;101330.66;;;8.92;100.00
10806;BME280;5455;53.224;6.000;2023-02-17T06:22:40;101335.13;;;8.97;100.00
10806;BME280;5455;53.224;6.000;2023-02-17T06:25:08;101329.63;;;8.97;100.00
10806;BME280;5455;53.224;6.000;2023-02-17T06:27:35;101341.91;;;8.99;100.00
10806;BME280;5455;53.224;6.000;2023-02-17T06:30:02;101349.84;;;9.01;100.00
10806;BME280;5455;53.224;6.000;2023-02-17T06:32:29;101333.78;;;9.03;100.00
10806;BME280;5455;53.224;6.000;2023-02-17T06:34:56;101326.81;;;9.05;100.00
10806;BME280;5455;53.224;6.000;2023-02-17T06:37:23;101330.38;;;9.06;100.00
10806;BME280;5455;53.224;6.000;2023-02-17T06:39:50;101325.69;;;9.06;100.00
10806;BME280;5455;53.224;6.000;2023-02-17T06:42:17;101320.63;;;9.08;100.00
10806;BME280;5455;53.224;6.000;2023-02-17T06:44:44;101314.47;;;9.11;100.00
10806;BME280;5455;53.224;6.000;2023-02-17T06:47:11;101299.22;;;9.14;100.00
10806;BME280;5455;53.224;6.000;2023-02-17T06:49:38;101310.34;;;9.17;100.00
10806;BME280;5455;53.224;6.000;2023-02-17T06:52:06;101301.44;;;9.20;100.00
10806;BME280;5455;53.224;6.000;2023-02-17T06:54:33;101316.44;;;9.23;100.00
10806;BME280;5455;53.224;6.000;2023-02-17T06:57:00;101301.56;;;9.24;100.00
10806;BME280;5455;53.224;6.000;2023-02-17T06:59:27;101307.19;;;9.27;100.00
10806;BME280;5455;53.224;6.000;2023-02-17T07:01:54;101313.50;;;9.28;100.00
10806;BME280;5455;53.224;6.000;2023-02-17T07:04:22;101312.03;;;9.30;100.00
10806;BME280;5455;53.224;6.000;2023-02-17T07:06:48;101287.25;;;9.30;100.00
10806;BME280;5455;53.224;6.000;2023-02-17T07:09:15;101302.59;;;9.31;100.00
10806;BME280;5455;53.224;6.000;2023-02-17T07:11:42;101310.97;;;9.35;100.00
10806;BME280;5455;53.224;6.000;2023-02-17T07:14:11;101300.47;;;9.37;100.00
10806;BME280;5455;53.224;6.000;2023-02-17T07:16:37;101297.34;;;9.38;100.00
10806;BME280;5455;53.224;6.000;2023-02-17T07:19:05;101306.06;;;9.40;100.00
10806;BME280;5455;53.224;6.000;2023-02-17T07:21:32;101300.25;;;9.42;100.00
10806;BME280;5455;53.224;6.000;2023-02-17T07:23:58;101293.25;;;9.45;100.00
10806;BME280;5455;53.224;6.000;2023-02-17T07:26:26;101301.19;;;9.46;100.00
10806;BME280;5455;53.224;6.000;2023-02-17T07:28:53;101306.31;;;9.48;100.00
10806;BME280;5455;53.224;6.000;2023-02-17T07:31:20;101290.25;;;9.50;100.00
10806;BME280;5455;53.224;6.000;2023-02-17T07:33:47;101303.34;;;9.53;100.00
10806;BME280;5455;53.224;6.000;2023-02-17T07:36:16;101272.38;;;9.56;100.00
10806;BME280;5455;53.224;6.000;2023-02-17T07:38:43;101281.44;;;9.56;100.00
10806;BME280;5455;53.224;6.000;2023-02-17T07:41:13;101289.72;;;9.56;100.00
10806;BME280;5455;53.224;6.000;2023-02-17T07:43:40;101294.53;;;9.59;100.00
10806;BME280;5455;53.224;6.000;2023-02-17T07:46:09;101271.38;;;9.60;100.00
10806;BME280;5455;53.224;6.000;2023-02-17T07:48:36;101279.28;;;9.62;100.00
10806;BME280;5455;53.224;6.000;2023-02-17T07:51:10;101282.16;;;9.65;100.00
10806;BME280;5455;53.224;6.000;2023-02-17T07:53:37;101283.78;;;9.66;100.00
10806;BME280;5455;53.224;6.000;2023-02-17T07:56:06;101291.34;;;9.69;100.00
10806;BME280;5455;53.224;6.000;2023-02-17T07:58:35;101283.22;;;9.73;100.00
10806;BME280;5455;53.224;6.000;2023-02-17T08:01:23;101268.75;;;9.76;100.00
10806;BME280;5455;53.224;6.000;2023-02-17T08:03:51;101268.41;;;9.77;100.00
10806;BME280;5455;53.224;6.000;2023-02-17T08:06:23;101284.59;;;9.79;100.00
10806;BME280;5455;53.224;6.000;2023-02-17T08:08:51;101277.59;;;9.81;100.00
10806;BME280;5455;53.224;6.000;2023-02-17T08:11:38;101275.28;;;9.83;100.00
10806;BME280;5455;53.224;6.000;2023-02-17T08:14:26;101268.28;;;9.86;100.00
10806;BME280;5455;53.224;6.000;2023-02-17T08:16:54;101276.66;;;9.89;100.00
10806;BME280;5455;53.224;6.000;2023-02-17T08:19:21;101266.09;;;9.91;100.00
10806;BME280;5455;53.224;6.000;2023-02-17T08:21:48;101259.56;;;9.96;100.00
10806;BME280;5455;53.224;6.000;2023-02-17T08:24:15;101263.25;;;10.00;100.00
10806;BME280;5455;53.224;6.000;2023-02-17T08:26:42;101250.38;;;10.04;100.00
10806;BME280;5455;53.224;6.000;2023-02-17T08:29:09;101259.91;;;10.07;100.00
10806;BME280;5455;53.224;6.000;2023-02-17T08:31:37;101260.03;;;10.10;100.00
10806;BME280;5455;53.224;6.000;2023-02-17T08:34:06;101250.25;;;10.13;100.00
10806;BME280;5455;53.224;6.000;2023-02-17T08:36:34;101239.38;;;10.16;100.00
10806;BME280;5455;53.224;6.000;2023-02-17T08:39:04;101234.69;;;10.17;100.00
10806;BME280;5455;53.224;6.000;2023-02-17T08:41:34;101257.75;;;10.24;100.00
10806;BME280;5455;53.224;6.000;2023-02-17T08:44:06;101238.22;;;10.29;100.00
10806;BME280;5455;53.224;6.000;2023-02-17T08:46:34;101245.69;;;10.29;100.00
10806;BME280;5455;53.224;6.000;2023-02-17T08:49:01;101230.75;;;10.30;100.00
10806;BME280;5455;53.224;6.000;2023-02-17T08:51:28;101228.13;;;10.33;100.00
10806;BME280;5455;53.224;6.000;2023-02-17T08:53:57;101249.38;;;10.33;100.00
10806;BME280;5455;53.224;6.000;2023-02-17T08:56:27;101245.00;;;10.32;100.00
10806;BME280;5455;53.224;6.000;2023-02-17T08:58:54;101265.34;;;10.27;100.00
10806;BME280;5455;53.224;6.000;2023-02-17T09:01:22;101274.16;;;10.33;100.00
10806;BME280;5455;53.224;6.000;2023-02-17T09:03:51;101274.97;;;10.33;100.00
10806;BME280;5455;53.224;6.000;2023-02-17T09:06:19;101251.06;;;10.37;100.00
10806;BME280;5455;53.224;6.000;2023-02-17T09:08:48;101260.59;;;10.40;100.00
10806;BME280;5455;53.224;6.000;2023-02-17T09:11:15;101263.13;;;10.45;100.00
10806;BME280;5455;53.224;6.000;2023-02-17T09:13:45;101277.78;;;10.49;100.00
10806;BME280;5455;53.224;6.000;2023-02-17T09:16:14;101273.19;;;10.53;100.00
10806;BME280;5455;53.224;6.000;2023-02-17T09:18:41;101281.47;;;10.53;100.00
10806;BME280;5455;53.224;6.000;2023-02-17T09:21:10;101266.44;;;10.50;100.00
10806;BME280;5455;53.224;6.000;2023-02-17T09:23:39;101250.91;;;10.46;100.00
10806;BME280;5455;53.224;6.000;2023-02-17T09:26:08;101244.38;;;10.50;100.00
10806;BME280;5455;53.224;6.000;2023-02-17T09:28:36;101256.22;;;10.51;100.00
10806;BME280;5455;53.224;6.000;2023-02-17T09:31:11;101257.00;;;10.51;100.00
10806;BME280;5455;53.224;6.000;2023-02-17T09:33:42;101257.81;;;10.52;100.00
10806;BME280;5455;53.224;6.000;2023-02-17T09:36:12;101252.50;;;10.59;100.00
10806;BME280;5455;53.224;6.000;2023-02-17T09:38:40;101246.28;;;10.62;100.00
10806;BME280;5455;53.224;6.000;2023-02-17T09:41:18;101248.69;;;10.64;100.00
10806;BME280;5455;53.224;6.000;2023-02-17T09:43:48;101274.09;;;10.69;100.00
10806;BME280;5455;53.224;6.000;2023-02-17T09:46:26;101265.81;;;10.69;100.00
10806;BME280;5455;53.224;6.000;2023-02-17T09:48:59;101285.78;;;10.78;100.00
10806;BME280;5455;53.224;6.000;2023-02-17T09:54:40;101298.25;;;10.88;100.00
10806;BME280;5455;53.224;6.000;2023-02-17T09:57:13;101290.91;;;10.92;100.00
10806;BME280;5455;53.224;6.000;2023-02-17T09:59:53;101307.56;;;10.95;100.00
10806;BME280;5455;53.224;6.000;2023-02-17T10:02:32;101309.63;;;10.98;100.00
10806;BME280;5455;53.224;6.000;2023-02-17T10:05:06;101313.06;;;10.95;100.00
10806;BME280;5455;53.224;6.000;2023-02-17T10:07:39;101300.97;;;11.00;100.00
10806;BME280;5455;53.224;6.000;2023-02-17T10:10:10;101307.31;;;11.00;100.00
10806;BME280;5455;53.224;6.000;2023-02-17T10:12:44;101302.94;;;10.99;100.00
10806;BME280;5455;53.224;6.000;2023-02-17T10:15:19;101323.75;;;10.97;100.00
10806;BME280;5455;53.224;6.000;2023-02-17T10:18:12;101331.25;;;10.96;100.00
10806;BME280;5455;53.224;6.000;2023-02-17T10:20:55;101302.22;;;11.02;100.00
10806;BME280;5455;53.224;6.000;2023-02-17T10:23:25;101316.97;;;10.94;100.00
10806;BME280;5455;53.224;6.000;2023-02-17T10:29:02;101319.47;;;10.99;100.00
10806;BME280;5455;53.224;6.000;2023-02-17T10:31:52;101296.84;;;10.94;100.00
10806;BME280;5455;53.224;6.000;2023-02-17T10:34:25;101295.47;;;11.00;100.00
10806;BME280;5455;53.224;6.000;2023-02-17T10:37:01;101306.50;;;11.00;100.00
10806;BME280;5455;53.224;6.000;2023-02-17T10:39:48;101331.81;;;11.02;100.00
10806;BME280;5455;53.224;6.000;2023-02-17T10:44:48;101342.47;;;11.03;100.00
10806;BME280;5455;53.224;6.000;2023-02-17T10:47:18;101365.09;;;11.09;100.00
10806;BME280;5455;53.224;6.000;2023-02-17T10:49:49;101377.53;;;11.03;100.00
10806;BME280;5455;53.224;6.000;2023-02-17T10:52:43;101375.41;;;10.96;100.00
10806;BME280;5455;53.224;6.000;2023-02-17T10:55:23;101361.50;;;10.93;100.00
10806;BME280;5455;53.224;6.000;2023-02-17T10:57:54;101337.00;;;10.91;100.00
10806;BME280;5455;53.224;6.000;2023-02-17T11:00:25;101367.13;;;10.96;100.00
10806;BME280;5455;53.224;6.000;2023-02-17T11:02:52;101349.50;;;11.01;100.00
10806;BME280;5455;53.224;6.000;2023-02-17T11:05:25;101355.34;;;10.99;100.00
10806;BME280;5455;53.224;6.000;2023-02-17T11:12:55;101370.97;;;11.07;100.00
10806;BME280;5455;53.224;6.000;2023-02-17T11:15:30;101363.47;;;11.20;100.00
10806;BME280;5455;53.224;6.000;2023-02-17T11:18:00;101357.09;;;11.32;100.00
10806;BME280;5455;53.224;6.000;2023-02-17T11:20:35;101359.59;;;11.37;100.00
10806;BME280;5455;53.224;6.000;2023-02-17T11:25:42;101345.09;;;11.40;100.00
10806;BME280;5455;53.224;6.000;2023-02-17T11:28:23;101376.81;;;11.46;100.00
10806;BME280;5455;53.224;6.000;2023-02-17T11:30:56;101352.16;;;11.53;100.00
10806;BME280;5455;53.224;6.000;2023-02-17T11:33:38;101357.59;;;11.49;100.00
10806;BME280;5455;53.224;6.000;2023-02-17T11:36:06;101369.19;;;11.55;100.00
10806;BME280;5455;53.224;6.000;2023-02-17T11:41:06;101357.00;;;11.56;100.00
10806;BME280;5455;53.224;6.000;2023-02-17T11:43:34;101348.53;;;11.65;100.00
10806;BME280;5455;53.224;6.000;2023-02-17T11:51:32;101378.78;;;11.73;100.00
10806;BME280;5455;53.224;6.000;2023-02-17T11:56:40;101384.00;;;11.63;100.00
10806;BME280;5455;53.224;6.000;2023-02-17T12:02:15;101378.09;;;11.76;100.00
10806;BME280;5455;53.224;6.000;2023-02-17T12:04:53;101377.97;;;11.73;100.00
10806;BME280;5455;53.224;6.000;2023-02-17T12:20:54;101395.59;;;12.11;100.00
10806;BME280;5455;53.224;6.000;2023-02-17T12:34:58;101409.81;;;11.82;100.00
10806;BME280;5455;53.224;6.000;2023-02-17T12:37:37;101399.56;;;11.83;100.00
10806;BME280;5455;53.224;6.000;2023-02-17T12:40:29;101391.28;;;11.83;100.00
10806;BME280;5455;53.224;6.000;2023-02-17T12:43:13;101415.78;;;11.84;100.00
10806;BME280;5455;53.224;6.000;2023-02-17T12:45:47;101412.69;;;11.86;100.00
10806;BME280;5455;53.224;6.000;2023-02-17T12:53:57;101423.56;;;11.94;100.00
10806;BME280;5455;53.224;6.000;2023-02-17T12:58:55;101420.53;;;11.99;100.00
10806;BME280;5455;53.224;6.000;2023-02-17T13:01:28;101433.38;;;11.92;100.00
10806;BME280;5455;53.224;6.000;2023-02-17T13:04:01;101417.41;;;11.85;100.00
10806;BME280;5455;53.224;6.000;2023-02-17T13:06:33;101430.31;;;11.81;100.00
10806;BME280;5455;53.224;6.000;2023-02-17T13:11:52;101426.13;;;11.87;100.00
10806;BME280;5455;53.224;6.000;2023-02-17T13:14:37;101445.56;;;11.91;100.00
10806;BME280;5455;53.224;6.000;2023-02-17T13:17:04;101443.97;;;11.90;100.00
10806;BME280;5455;53.224;6.000;2023-02-17T13:19:33;101453.16;;;11.94;100.00
10806;BME280;5455;53.224;6.000;2023-02-17T13:22:01;101459.41;;;11.91;100.00
10806;BME280;5455;53.224;6.000;2023-02-17T13:30:04;101451.72;;;11.84;100.00
10806;BME280;5455;53.224;6.000;2023-02-17T13:32:34;101465.88;;;11.83;100.00
10806;BME280;5455;53.224;6.000;2023-02-17T13:35:28;101461.06;;;11.80;100.00
10806;BME280;5455;53.224;6.000;2023-02-17T13:37:57;101485.38;;;11.74;100.00
10806;BME280;5455;53.224;6.000;2023-02-17T13:40:33;101489.13;;;11.82;100.00
10806;BME280;5455;53.224;6.000;2023-02-17T13:43:15;101492.75;;;11.98;100.00
10806;BME280;5455;53.224;6.000;2023-02-17T13:45:48;101492.09;;;12.17;100.00
10806;BME280;5455;53.224;6.000;2023-02-17T13:48:30;101490.22;;;12.21;100.00
10806;BME280;5455;53.224;6.000;2023-02-17T13:51:05;101491.88;;;12.37;100.00
10806;BME280;5455;53.224;6.000;2023-02-17T13:53:38;101485.53;;;12.52;100.00
10806;BME280;5455;53.224;6.000;2023-02-17T13:56:10;101513.72;;;12.58;100.00
10806;BME280;5455;53.224;6.000;2023-02-17T13:58:48;101511.78;;;12.58;100.00
10806;BME280;5455;53.224;6.000;2023-02-17T14:01:18;101503.63;;;12.50;100.00
10806;BME280;5455;53.224;6.000;2023-02-17T14:03:48;101519.16;;;12.39;100.00
10806;BME280;5455;53.224;6.000;2023-02-17T14:06:37;101537.59;;;12.35;100.00
10806;BME280;5455;53.224;6.000;2023-02-17T14:09:23;101550.53;;;12.31;100.00
10806;BME280;5455;53.224;6.000;2023-02-17T14:11:51;101553.25;;;12.15;100.00
10806;BME280;5455;53.224;6.000;2023-02-17T14:14:28;101557.81;;;12.07;100.00
10806;BME280;5455;53.224;6.000;2023-02-17T14:17:07;101542.25;;;12.03;100.00
10806;BME280;5455;53.224;6.000;2023-02-17T14:19:44;101555.41;;;11.94;100.00
10806;BME280;5455;53.224;6.000;2023-02-17T14:22:29;101556.59;;;11.81;100.00
10806;BME280;5455;53.224;6.000;2023-02-17T14:24:59;101559.94;;;11.86;100.00
10806;BME280;5455;53.224;6.000;2023-02-17T14:27:39;101541.16;;;11.92;100.00
10806;BME280;5455;53.224;6.000;2023-02-17T14:30:15;101567.38;;;11.98;100.00
10806;BME280;5455;53.224;6.000;2023-02-17T14:32:42;101552.91;;;11.89;100.00
10806;BME280;5455;53.224;6.000;2023-02-17T14:37:39;101561.44;;;11.84;100.00
10806;BME280;5455;53.224;6.000;2023-02-17T14:40:22;101565.13;;;11.76;100.00
10806;BME280;5455;53.224;6.000;2023-02-17T14:42:50;101563.63;;;11.66;100.00
10806;BME280;5455;53.224;6.000;2023-02-17T14:45:17;101566.41;;;11.66;100.00
10806;BME280;5455;53.224;6.000;2023-02-17T14:47:45;101586.22;;;11.68;100.00